Long Lake, NY

1:44 PM EST on February 06, 2016 (GMT -0500)
Adirondack Acres | | Change Station
CLOSE
Current Station
Personal Weather Station
Location: Long Lake, NY
Elevation: 1650 ft
Nearby Weather Stations

Elev 1650 ft 43.98 °N, 74.43 °W | Updated 5 seconds ago

Overcast
Overcast
30.0 °F
Feels Like 24 °F
N
5.4
Wind Variable Wind from South
Gusts 6.3 mph

Today
High -- | Low -- °F
--% Chance of Precip.
Yesterday
High -- | Low -- °F
Precip. -- in
Pressure 30.04 in
Visibility 2.5 miles
Clouds Mostly Cloudy 2100 ft
Overcast 2800 ft
Windchill 24 °F
Dew Point 15 °F
Humidity 53%
Rainfall 0.00 in
Snow Depth Not available.
7:09 AM 5:14 PM
Waning Crescent, 4% visible
SPECI KSLK 061836Z AUTO 23010KT 2 1/2SM -SN BR BKN021 OVC028 M02/M04 A3004 RMK AO2 P0000 T10221044
Pressure 30.04 in
Visibility 2.5 miles
Clouds Mostly Cloudy 2100 ft
Overcast 2800 ft
Windchill 24 °F
Dew Point 15 °F
Humidity 53%
Rainfall 0.00 in
Snow Depth Not available.
7:09 AM 5:14 PM
Waning Crescent, 4% visible
SPECI KSLK 061836Z AUTO 23010KT 2 1/2SM -SN BR BKN021 OVC028 M02/M04 A3004 RMK AO2 P0000 T10221044

10-Day Weather Forecast

Almanac

Astronomy

Feb. 06, 2016 Rise Set
Actual Time
Civil Twilight
Nautical Twilight
Astronomical Twilight
Moon
Length of Visible Light
Length of Day
Tomorrow will be .
, % of the Moon is Illuminated

Today's Extremes

State Highs State Lows

Community

WunderPhotos

Upload Photos

1,891,033 photos uploaded!

WunderBlog® & News

Nearby

Air Quality

  Air Quality AQ Index Pollutant
Not available.

Snow Depth

Station Depth Elevation

Earthquake Activity

City Distance Mag. Time & Date
Minimum magnitude displayed is 2.5.

Coastal Water Temperatures

Place Temperature

Stations

Nearby Weather Stations

Station Location Temp. Windchill Dew Point Humidity Wind Precip. Elev Updated Type
                   

Watches & Warnings

There are currently no watches in effect.